PANC

Anchorage

Airport
ICAO code
PANC
Summary
ICAO Region
NAM
ICAO Territory
Location

Anchorage, Alaska,

Coordinates
61° 10' 51" N , 150° 0' 16" W
KCC
Airport CFIT
Altimeter Temperature Error Correction
Airport RI
Runway Misidentification
Airport WX
Volcanic Ash
Metar
PANC 201653Z 00000KT 10SM FEW140 SCT220 02/M06 A2993 RMK AO2 SLP139 T00221056

Description

International airport serving Anchorage.

Climatology

Cool continental climate/Subarctic climate (Köppen climate classification Dfc)

Runways

Designator Length Width Surface Rops
07L/25R 3231 46 ASP Yes/Yes
07R/25L 3322 46 ASP Yes/Yes
14/32 3531 46 ASP Yes/Yes

Airport map

Aerial View

SKYbrary Partners:

Safety knowledge contributed by: